createdAt,value
2018-07-05T00:00:43.840Z,4.03
2018-07-05T00:03:17.768Z,3.80
2018-07-05T00:05:51.978Z,4.57
2018-07-05T00:08:25.892Z,4.10
2018-07-05T00:11:00.016Z,4.33
2018-07-05T00:13:34.535Z,4.30
2018-07-05T00:16:08.237Z,4.10
2018-07-05T00:18:42.324Z,4.33
2018-07-05T00:21:16.542Z,4.23
2018-07-05T00:23:50.704Z,4.77
2018-07-05T00:26:24.688Z,4.50
2018-07-05T00:28:59.005Z,4.47
2018-07-05T00:31:33.092Z,4.30
2018-07-05T00:34:06.822Z,4.20
2018-07-05T00:36:40.739Z,4.50
2018-07-05T00:39:14.860Z,4.73
2018-07-05T00:41:48.856Z,4.77
2018-07-05T00:44:23.277Z,4.63
2018-07-05T00:46:57.149Z,4.57
2018-07-05T00:49:31.201Z,5.20
2018-07-05T00:52:05.121Z,4.90
2018-07-05T00:54:39.324Z,5.10
2018-07-05T00:57:13.445Z,4.97
2018-07-05T00:59:47.471Z,5.00
2018-07-05T01:02:21.594Z,5.00
2018-07-05T01:04:55.705Z,5.20
2018-07-05T01:07:29.672Z,4.90
2018-07-05T01:10:03.420Z,5.20
2018-07-05T01:12:37.380Z,5.40
2018-07-05T01:15:11.216Z,4.83
2018-07-05T01:17:45.097Z,5.03
2018-07-05T01:20:19.259Z,4.90
2018-07-05T01:22:52.928Z,5.03
2018-07-05T01:25:27.061Z,5.00
2018-07-05T01:28:01.268Z,5.40
2018-07-05T01:30:35.285Z,5.27
2018-07-05T01:33:09.168Z,5.33
2018-07-05T01:35:42.768Z,5.07
2018-07-05T01:38:16.932Z,5.40
2018-07-05T01:40:50.817Z,5.47
2018-07-05T01:43:25.134Z,5.13
2018-07-05T01:45:59.059Z,5.23
2018-07-05T01:48:33.167Z,5.33
2018-07-05T01:51:07.076Z,5.20
2018-07-05T01:53:41.385Z,5.40
2018-07-05T01:56:15.192Z,5.50
2018-07-05T01:58:48.924Z,5.17
2018-07-05T02:01:22.786Z,5.10
2018-07-05T02:03:56.433Z,5.10
2018-07-05T02:06:30.303Z,4.90
2018-07-05T02:09:04.745Z,5.13
2018-07-05T02:11:38.752Z,4.70
2018-07-05T02:14:12.892Z,5.07
2018-07-05T02:16:46.885Z,4.80
2018-07-05T02:19:20.816Z,5.33
2018-07-05T02:21:54.885Z,4.80
2018-07-05T02:24:28.808Z,5.27
2018-07-05T02:27:03.024Z,5.07
2018-07-05T02:29:36.937Z,4.77
2018-07-05T02:32:11.151Z,4.97
2018-07-05T02:34:45.160Z,5.30
2018-07-05T02:37:24.439Z,5.33
2018-07-05T02:39:58.714Z,4.80
2018-07-05T02:42:32.652Z,5.20
2018-07-05T02:45:06.517Z,5.27
2018-07-05T02:47:40.747Z,5.20
2018-07-05T02:50:14.732Z,4.83
2018-07-05T02:52:48.611Z,5.03
2018-07-05T02:55:22.452Z,5.33
2018-07-05T02:57:56.413Z,5.63
2018-07-05T03:00:30.396Z,5.23
2018-07-05T03:03:04.320Z,4.93
2018-07-05T03:05:38.228Z,5.03
2018-07-05T03:08:12.134Z,4.90
2018-07-05T03:10:46.220Z,4.87
2018-07-05T03:13:20.248Z,5.20
2018-07-05T03:15:54.168Z,5.17
2018-07-05T03:18:28.391Z,4.80
2018-07-05T03:21:03.108Z,5.20
2018-07-05T03:23:37.304Z,5.43
2018-07-05T03:26:11.236Z,5.10
2018-07-05T03:28:45.345Z,5.27
2018-07-05T03:31:19.748Z,4.93
2018-07-05T03:33:53.385Z,4.90
2018-07-05T03:36:27.274Z,5.30
2018-07-05T03:39:01.205Z,5.10
2018-07-05T03:41:35.092Z,5.13
2018-07-05T03:44:09.041Z,4.90
2018-07-05T03:46:42.891Z,5.00
2018-07-05T03:49:17.033Z,5.00
2018-07-05T03:51:51.037Z,5.17
2018-07-05T03:54:25.124Z,4.57
2018-07-05T03:56:59.167Z,5.23
2018-07-05T03:59:33.076Z,4.87
2018-07-05T04:02:07.184Z,5.13
2018-07-05T04:04:41.201Z,5.13
2018-07-05T04:07:15.315Z,4.77
2018-07-05T04:09:49.323Z,5.23
2018-07-05T04:12:23.728Z,4.47
2018-07-05T04:14:57.937Z,5.33
2018-07-05T04:17:31.970Z,5.43
2018-07-05T04:20:05.585Z,5.20
2018-07-05T04:22:39.972Z,5.17
2018-07-05T04:25:14.329Z,4.77
2018-07-05T04:27:48.222Z,5.40
2018-07-05T04:30:22.137Z,5.33
2018-07-05T04:32:56.041Z,4.83
2018-07-05T04:35:29.953Z,4.87
2018-07-05T04:38:03.906Z,4.93
2018-07-05T04:40:37.772Z,4.77
2018-07-05T04:43:11.575Z,4.43
2018-07-05T04:45:45.564Z,4.57
2018-07-05T04:48:19.520Z,4.87
2018-07-05T04:50:53.389Z,5.00
2018-07-05T04:53:27.317Z,4.77
2018-07-05T04:56:01.115Z,5.33
2018-07-05T04:58:35.052Z,4.30
2018-07-05T05:01:09.225Z,4.80
2018-07-05T05:03:43.444Z,4.50
2018-07-05T05:06:17.448Z,4.37
2018-07-05T05:08:51.397Z,4.40
2018-07-05T05:11:25.480Z,4.23
2018-07-05T05:13:59.409Z,4.30
2018-07-05T05:16:33.633Z,4.70
2018-07-05T05:19:07.336Z,3.87
2018-07-05T05:21:41.744Z,4.27
2018-07-05T05:24:15.467Z,4.30
2018-07-05T05:26:49.364Z,4.10
2018-07-05T05:29:23.476Z,4.10
2018-07-05T05:31:57.704Z,3.97
2018-07-05T05:34:31.910Z,4.10
2018-07-05T05:37:05.949Z,4.23
2018-07-05T05:39:40.316Z,4.07
2018-07-05T05:42:14.084Z,4.20
2018-07-05T05:44:47.931Z,3.90
2018-07-05T05:47:21.894Z,4.00
2018-07-05T05:49:55.776Z,3.87
2018-07-05T05:52:29.692Z,3.77
2018-07-05T05:55:03.676Z,3.80
2018-07-05T05:57:38.322Z,4.30
2018-07-05T06:00:12.619Z,4.03
2018-07-05T06:02:46.730Z,4.10
2018-07-05T06:05:20.650Z,3.80
2018-07-05T06:07:54.368Z,3.70
2018-07-05T06:10:28.249Z,3.80
2018-07-05T06:13:02.396Z,3.93
2018-07-05T06:15:36.633Z,3.80
2018-07-05T06:18:10.807Z,3.80
2018-07-05T06:20:44.836Z,3.73
2018-07-05T06:23:18.745Z,3.93
2018-07-05T06:25:52.880Z,3.73
2018-07-05T06:28:26.864Z,3.53
2018-07-05T06:31:00.885Z,3.80
2018-07-05T06:33:34.864Z,3.17
2018-07-05T06:36:08.521Z,3.50
2018-07-05T06:38:42.512Z,3.57
2018-07-05T06:41:16.604Z,3.33
2018-07-05T06:43:51.316Z,3.60
2018-07-05T06:46:25.169Z,3.50
2018-07-05T06:48:59.077Z,3.30
2018-07-05T06:51:33.188Z,3.30
2018-07-05T06:54:07.412Z,3.30
2018-07-05T06:56:41.408Z,3.40
2018-07-05T06:59:15.670Z,3.57
2018-07-05T07:01:49.708Z,3.33
2018-07-05T07:04:24.236Z,3.70
2018-07-05T07:06:58.452Z,3.20
2018-07-05T07:09:32.464Z,3.40
2018-07-05T07:12:06.409Z,3.27
2018-07-05T07:14:40.226Z,3.03
2018-07-05T07:17:13.915Z,3.37
2018-07-05T07:19:47.816Z,3.50
2018-07-05T07:22:21.904Z,3.23
2018-07-05T07:24:55.657Z,3.20
2018-07-05T07:27:29.523Z,3.53
2018-07-05T07:30:03.352Z,3.33
2018-07-05T07:32:37.546Z,3.10
2018-07-05T07:35:11.505Z,3.00
2018-07-05T07:37:45.436Z,3.37
2018-07-05T07:40:19.068Z,2.83
2018-07-05T07:42:46.853Z,3.30
2018-07-05T07:45:14.814Z,2.80
2018-07-05T07:47:42.893Z,3.17
2018-07-05T07:50:11.252Z,3.00
2018-07-05T07:52:39.129Z,2.73
2018-07-05T07:55:06.936Z,3.10
2018-07-05T07:57:34.676Z,3.03
2018-07-05T08:00:02.944Z,2.90
2018-07-05T08:02:30.820Z,3.00
2018-07-05T08:04:58.763Z,2.70
2018-07-05T08:07:27.144Z,3.10
2018-07-05T08:09:55.339Z,2.83
2018-07-05T08:12:23.288Z,2.70
2018-07-05T08:14:51.176Z,2.93
2018-07-05T08:17:19.556Z,2.50
2018-07-05T08:19:47.636Z,2.63
2018-07-05T08:22:15.597Z,2.90
2018-07-05T08:24:43.456Z,2.90
2018-07-05T08:27:11.417Z,2.70
2018-07-05T08:29:39.308Z,2.77
2018-07-05T08:32:07.251Z,2.50
2018-07-05T08:34:35.328Z,2.77
2018-07-05T08:37:03.393Z,2.70
2018-07-05T08:39:31.068Z,2.90
2018-07-05T08:41:58.953Z,3.10
2018-07-05T08:44:26.692Z,2.80
2018-07-05T08:46:54.788Z,2.80
2018-07-05T08:49:22.964Z,2.67
2018-07-05T08:51:50.920Z,2.60
2018-07-05T08:54:19.318Z,2.70
2018-07-05T08:56:47.388Z,2.50
2018-07-05T08:59:15.120Z,2.73
2018-07-05T09:01:42.947Z,2.70
2018-07-05T09:04:10.963Z,2.80
2018-07-05T09:06:39.036Z,2.60
2018-07-05T09:09:07.157Z,2.70
2018-07-05T09:11:35.305Z,2.90
2018-07-05T09:14:03.072Z,2.37
2018-07-05T09:16:30.836Z,2.60
2018-07-05T09:18:58.907Z,2.90
2018-07-05T09:21:27.041Z,2.90
2018-07-05T09:23:55.250Z,2.90
2018-07-05T09:26:23.718Z,2.83
2018-07-05T09:28:51.660Z,2.60
2018-07-05T09:31:19.983Z,2.60
2018-07-05T09:33:47.864Z,2.70
2018-07-05T09:36:15.553Z,2.63
2018-07-05T09:38:43.804Z,2.53
2018-07-05T09:41:11.765Z,2.57
2018-07-05T09:43:39.945Z,2.53
2018-07-05T09:46:07.909Z,2.90
2018-07-05T09:48:35.984Z,2.50
2018-07-05T09:51:04.048Z,2.83
2018-07-05T09:53:31.904Z,2.73
2018-07-05T09:55:59.893Z,2.67
2018-07-05T09:58:28.061Z,2.43
2018-07-05T10:00:56.036Z,2.70
2018-07-05T10:03:24.363Z,2.30
2018-07-05T10:05:52.475Z,2.50
2018-07-05T10:08:20.556Z,2.63
2018-07-05T10:10:48.829Z,2.60
2018-07-05T10:13:16.941Z,2.50
2018-07-05T10:15:44.545Z,2.33
2018-07-05T10:18:12.742Z,2.60
2018-07-05T10:20:40.892Z,2.67
2018-07-05T10:23:08.555Z,2.93
2018-07-05T10:25:36.463Z,2.50
2018-07-05T10:28:04.518Z,2.73
2018-07-05T10:30:38.204Z,2.57
2018-07-05T10:33:12.144Z,2.70
2018-07-05T10:35:40.098Z,2.50
2018-07-05T10:38:08.185Z,2.90
2018-07-05T10:40:43.413Z,2.60
2018-07-05T10:43:17.537Z,2.50
2018-07-05T10:45:51.776Z,2.43
2018-07-05T10:48:26.067Z,2.50
2018-07-05T10:51:00.008Z,2.40
2018-07-05T10:53:34.068Z,2.57
2018-07-05T10:56:08.124Z,2.67
2018-07-05T10:58:42.296Z,2.50
2018-07-05T11:01:16.117Z,2.80
2018-07-05T11:03:50.344Z,2.67
2018-07-05T11:06:24.046Z,2.40
2018-07-05T11:08:57.956Z,2.50
2018-07-05T11:11:31.861Z,2.50
2018-07-05T11:14:05.760Z,2.60
2018-07-05T11:16:39.725Z,2.60
2018-07-05T11:19:13.617Z,2.40
2018-07-05T11:21:47.480Z,2.50
2018-07-05T11:24:21.641Z,2.47
2018-07-05T11:26:55.496Z,2.67
2018-07-05T11:29:29.272Z,2.37
2018-07-05T11:32:03.653Z,2.23
2018-07-05T11:34:37.657Z,2.70
2018-07-05T11:37:11.577Z,2.77
2018-07-05T11:39:45.501Z,2.40
2018-07-05T11:42:19.421Z,2.70
2018-07-05T11:44:53.489Z,2.50
2018-07-05T11:47:27.729Z,2.80
2018-07-05T11:50:01.716Z,3.20
2018-07-05T11:52:35.656Z,2.60
2018-07-05T11:55:09.532Z,3.10
2018-07-05T11:57:43.658Z,2.83
2018-07-05T12:00:17.373Z,2.77
2018-07-05T12:02:51.336Z,2.80
2018-07-05T12:05:25.241Z,2.90
2018-07-05T12:07:59.085Z,2.73
2018-07-05T12:10:33.000Z,2.73
2018-07-05T12:13:06.936Z,3.00
2018-07-05T12:15:41.024Z,3.00
2018-07-05T12:18:14.755Z,2.97
2018-07-05T12:20:48.817Z,2.73
2018-07-05T12:23:22.747Z,3.03
2018-07-05T12:25:56.640Z,3.37
2018-07-05T12:28:30.328Z,3.03
2018-07-05T12:31:04.277Z,3.20
2018-07-05T12:33:38.271Z,3.23
2018-07-05T12:36:12.612Z,3.30
2018-07-05T12:38:46.424Z,3.43
2018-07-05T12:41:20.196Z,3.10
2018-07-05T12:43:54.127Z,3.37
2018-07-05T12:46:28.326Z,3.27
2018-07-05T12:49:02.256Z,3.23
2018-07-05T12:51:36.155Z,3.20
2018-07-05T12:54:10.069Z,3.07
2018-07-05T12:56:43.963Z,3.30
2018-07-05T12:59:18.000Z,3.23
2018-07-05T13:01:52.136Z,3.20
2018-07-05T13:04:26.331Z,3.40
2018-07-05T13:07:00.235Z,3.40
2018-07-05T13:09:34.447Z,3.30
2018-07-05T13:12:08.355Z,3.57
2018-07-05T13:14:42.474Z,3.47
2018-07-05T13:17:16.462Z,3.43
2018-07-05T13:19:50.369Z,3.50
2018-07-05T13:22:24.300Z,3.13
2018-07-05T13:24:58.396Z,3.70
2018-07-05T13:27:32.468Z,3.30
2018-07-05T13:30:06.316Z,3.40
2018-07-05T13:32:40.453Z,3.40
2018-07-05T13:35:14.652Z,3.70
2018-07-05T13:37:48.572Z,3.70
2018-07-05T13:40:22.585Z,3.70
2018-07-05T13:42:56.212Z,3.50
2018-07-05T13:45:30.349Z,3.73
2018-07-05T13:48:04.047Z,3.50
2018-07-05T13:50:37.940Z,3.20
2018-07-05T13:53:11.828Z,3.73
2018-07-05T13:55:45.760Z,3.50
2018-07-05T13:58:19.545Z,3.60
2018-07-05T14:00:54.044Z,3.33
2018-07-05T14:03:27.993Z,3.90
2018-07-05T14:06:01.671Z,3.70
2018-07-05T14:08:35.813Z,3.47
2018-07-05T14:11:09.825Z,3.93
2018-07-05T14:13:44.352Z,3.70
2018-07-05T14:16:18.220Z,3.83
2018-07-05T14:18:52.336Z,3.83
2018-07-05T14:21:26.232Z,3.67
2018-07-05T14:24:00.166Z,3.50
2018-07-05T14:26:34.377Z,4.00
2018-07-05T14:29:08.382Z,3.60
2018-07-05T14:31:42.537Z,3.53
2018-07-05T14:34:16.732Z,3.53
2018-07-05T14:36:50.934Z,3.73
2018-07-05T14:39:24.936Z,3.60
2018-07-05T14:41:59.067Z,3.60
2018-07-05T14:44:33.053Z,3.63
2018-07-05T14:47:06.990Z,3.80
2018-07-05T14:49:41.080Z,3.00
2018-07-05T14:52:15.320Z,3.30
2018-07-05T14:54:49.163Z,3.70
2018-07-05T14:57:22.944Z,3.43
2018-07-05T14:59:56.741Z,3.60
2018-07-05T15:02:30.428Z,3.53
2018-07-05T15:05:04.229Z,3.90
2018-07-05T15:07:37.940Z,4.30
2018-07-05T15:10:11.740Z,3.97
2018-07-05T15:12:45.844Z,3.87
2018-07-05T15:15:19.559Z,4.00
2018-07-05T15:17:53.160Z,3.90
2018-07-05T15:20:26.921Z,3.77
2018-07-05T15:23:00.704Z,3.77
2018-07-05T15:25:34.705Z,3.97
2018-07-05T15:28:08.440Z,3.67
2018-07-05T15:30:42.464Z,3.57
2018-07-05T15:33:16.156Z,3.80
2018-07-05T15:35:49.968Z,3.57
2018-07-05T15:38:23.817Z,3.80
2018-07-05T15:40:58.157Z,3.80
2018-07-05T15:43:32.272Z,3.93
2018-07-05T15:46:05.952Z,4.10
2018-07-05T15:48:39.782Z,3.70
2018-07-05T15:51:13.651Z,3.90
2018-07-05T15:53:47.705Z,3.67
2018-07-05T15:56:21.512Z,3.90
2018-07-05T15:58:55.341Z,3.83
2018-07-05T16:01:29.104Z,3.60
2018-07-05T16:04:03.364Z,3.57
2018-07-05T16:06:37.868Z,3.90
2018-07-05T16:09:12.292Z,3.67
2018-07-05T16:11:46.196Z,3.87
2018-07-05T16:14:20.413Z,3.90
2018-07-05T16:16:54.408Z,4.37
2018-07-05T16:19:28.565Z,4.13
2018-07-05T16:22:02.552Z,3.70
2018-07-05T16:24:36.672Z,4.10
2018-07-05T16:27:10.860Z,4.00
2018-07-05T16:29:44.616Z,4.10
2018-07-05T16:32:18.672Z,3.77
2018-07-05T16:34:52.892Z,4.07
2018-07-05T16:37:26.925Z,4.00
2018-07-05T16:40:01.324Z,4.20
2018-07-05T16:42:34.992Z,4.20
2018-07-05T16:45:08.965Z,4.20
2018-07-05T16:47:43.048Z,3.70
2018-07-05T16:50:17.390Z,4.00
2018-07-05T16:52:51.293Z,4.20
2018-07-05T16:55:25.196Z,4.20
2018-07-05T16:57:59.128Z,4.10
2018-07-05T17:00:32.945Z,4.10
2018-07-05T17:03:07.120Z,4.00
2018-07-05T17:05:41.052Z,3.90
2018-07-05T17:08:15.412Z,4.10
2018-07-05T17:10:49.483Z,4.20
2018-07-05T17:13:23.430Z,4.23
2018-07-05T17:15:57.630Z,4.00
2018-07-05T17:18:31.646Z,4.43
2018-07-05T17:21:05.545Z,4.30
2018-07-05T17:23:39.475Z,4.73
2018-07-05T17:26:13.401Z,5.00
2018-07-05T17:28:47.263Z,5.53
2018-07-05T17:31:21.351Z,5.73
2018-07-05T17:33:55.590Z,10.90
2018-07-05T17:36:29.816Z,13.33
2018-07-05T17:39:04.920Z,17.30
2018-07-05T17:41:38.937Z,21.40
2018-07-05T17:44:12.895Z,19.60
2018-07-05T17:46:46.756Z,25.03
2018-07-05T17:49:20.924Z,23.63
2018-07-05T17:51:54.896Z,22.50
2018-07-05T17:54:29.016Z,26.40
2018-07-05T17:57:02.908Z,29.90
2018-07-05T17:59:36.919Z,31.37
2018-07-05T18:02:10.743Z,30.87
2018-07-05T18:04:44.953Z,29.00
2018-07-05T18:07:19.048Z,27.40
2018-07-05T18:09:52.876Z,25.17
2018-07-05T18:12:26.983Z,23.67
2018-07-05T18:15:01.029Z,22.00
2018-07-05T18:17:34.672Z,20.07
2018-07-05T18:20:08.821Z,19.00
2018-07-05T18:22:42.729Z,16.80
2018-07-05T18:25:16.583Z,16.37
2018-07-05T18:27:50.822Z,14.47
2018-07-05T18:30:24.944Z,14.83
2018-07-05T18:32:59.528Z,13.27
2018-07-05T18:35:33.277Z,13.13
2018-07-05T18:38:06.991Z,11.43
2018-07-05T18:40:40.906Z,11.10
2018-07-05T18:43:15.335Z,10.47
2018-07-05T18:45:49.656Z,10.00
2018-07-05T18:48:23.975Z,9.17
2018-07-05T18:50:57.891Z,8.83
2018-07-05T18:53:32.316Z,8.30
2018-07-05T18:56:06.522Z,7.90
2018-07-05T18:58:40.237Z,7.90
2018-07-05T19:01:14.351Z,7.07
2018-07-05T19:03:48.016Z,7.20
2018-07-05T19:06:21.948Z,7.33
2018-07-05T19:08:56.092Z,7.50
2018-07-05T19:11:30.379Z,7.60
2018-07-05T19:14:04.700Z,6.03
2018-07-05T19:16:38.557Z,6.73
2018-07-05T19:19:12.415Z,6.37
2018-07-05T19:21:46.337Z,6.53
2018-07-05T19:24:20.165Z,6.70
2018-07-05T19:26:54.148Z,6.27
2018-07-05T19:29:28.034Z,6.00
2018-07-05T19:32:02.173Z,6.13
2018-07-05T19:34:36.183Z,6.53
2018-07-05T19:37:09.964Z,6.00
2018-07-05T19:39:44.213Z,6.50
2018-07-05T19:42:18.248Z,6.00
2018-07-05T19:44:52.312Z,5.60
2018-07-05T19:47:26.353Z,6.10
2018-07-05T19:50:00.554Z,6.00
2018-07-05T19:52:34.466Z,5.77
2018-07-05T19:55:08.356Z,6.10
2018-07-05T19:57:42.285Z,6.00
2018-07-05T20:00:16.197Z,5.80
2018-07-05T20:02:50.129Z,5.73
2018-07-05T20:05:24.032Z,6.30
2018-07-05T20:07:57.945Z,6.17
2018-07-05T20:10:31.840Z,6.60
2018-07-05T20:13:05.768Z,5.50
2018-07-05T20:15:39.627Z,5.77
2018-07-05T20:18:13.780Z,6.23
2018-07-05T20:20:47.976Z,5.97
2018-07-05T20:23:21.676Z,5.73
2018-07-05T20:25:55.977Z,6.03
2018-07-05T20:28:29.788Z,5.63
2018-07-05T20:31:04.023Z,6.07
2018-07-05T20:33:38.447Z,6.07
2018-07-05T20:36:12.439Z,6.17
2018-07-05T20:38:46.569Z,5.43
2018-07-05T20:41:20.659Z,6.33
2018-07-05T20:43:54.672Z,6.00
2018-07-05T20:46:28.713Z,5.90
2018-07-05T20:49:02.925Z,5.90
2018-07-05T20:51:37.037Z,6.17
2018-07-05T20:54:10.950Z,5.37
2018-07-05T20:56:44.957Z,6.30
2018-07-05T20:59:19.066Z,6.23
2018-07-05T21:01:52.785Z,6.00
2018-07-05T21:04:27.008Z,6.17
2018-07-05T21:07:01.093Z,5.80
2018-07-05T21:09:35.145Z,5.77
2018-07-05T21:12:09.220Z,6.10
2018-07-05T21:14:43.139Z,5.50
2018-07-05T21:17:16.853Z,6.13
2018-07-05T21:19:50.948Z,5.50
2018-07-05T21:22:25.176Z,6.00
2018-07-05T21:24:58.884Z,5.77
2018-07-05T21:27:32.972Z,6.53
2018-07-05T21:30:06.683Z,5.70
2018-07-05T21:32:40.612Z,5.77
2018-07-05T21:35:14.718Z,5.73
2018-07-05T21:37:48.427Z,5.93
2018-07-05T21:40:22.384Z,5.43
2018-07-05T21:42:56.426Z,5.73
2018-07-05T21:45:31.032Z,5.37
2018-07-05T21:48:04.990Z,5.43
2018-07-05T21:50:38.618Z,5.77
2018-07-05T21:53:12.496Z,5.67
2018-07-05T21:55:46.415Z,5.57
2018-07-05T21:58:20.580Z,5.33
2018-07-05T22:00:54.256Z,5.50
2018-07-05T22:03:28.438Z,5.70
2018-07-05T22:06:02.432Z,5.33
2018-07-05T22:08:36.243Z,5.23
2018-07-05T22:11:10.085Z,5.00
2018-07-05T22:13:44.081Z,5.60
2018-07-05T22:16:17.712Z,5.57
2018-07-05T22:18:56.732Z,5.20
2018-07-05T22:21:30.821Z,4.80
2018-07-05T22:24:09.964Z,5.30
2018-07-05T22:26:45.193Z,5.57
2018-07-05T22:29:24.240Z,5.40
2018-07-05T22:31:59.464Z,5.53
2018-07-05T22:34:33.697Z,5.10
2018-07-05T22:37:07.384Z,5.23
2018-07-05T22:39:41.320Z,4.87
2018-07-05T22:42:15.380Z,5.20
2018-07-05T22:44:49.400Z,5.30
2018-07-05T22:47:23.530Z,5.20
2018-07-05T22:49:57.241Z,5.13
2018-07-05T22:52:31.143Z,5.30
2018-07-05T22:55:05.381Z,5.53
2018-07-05T22:57:39.252Z,5.20
2018-07-05T23:00:13.246Z,5.00
2018-07-05T23:02:47.292Z,4.80
2018-07-05T23:05:21.485Z,5.03
2018-07-05T23:07:55.396Z,4.77
2018-07-05T23:10:29.117Z,5.10
2018-07-05T23:13:03.037Z,5.10
2018-07-05T23:15:36.936Z,4.83
2018-07-05T23:18:10.852Z,4.90
2018-07-05T23:20:44.741Z,4.90
2018-07-05T23:23:18.674Z,5.00
2018-07-05T23:25:52.257Z,5.00
2018-07-05T23:28:26.184Z,5.10
2018-07-05T23:31:00.103Z,4.80
2018-07-05T23:33:33.997Z,4.97
2018-07-05T23:36:08.110Z,4.90
2018-07-05T23:38:42.125Z,4.70
2018-07-05T23:41:16.240Z,4.77
2018-07-05T23:43:50.228Z,4.70
2018-07-05T23:46:24.161Z,4.80
2018-07-05T23:48:58.044Z,4.63
2018-07-05T23:51:32.483Z,4.63
2018-07-05T23:54:06.707Z,5.27
2018-07-05T23:56:40.956Z,4.77
2018-07-05T23:59:14.807Z,4.73
